TimeCDT,TemperatureF,Dew PointF,Humidity,Sea Level PressureIn,VisibilityMPH,Wind Direction,Wind SpeedMPH,Gust SpeedMPH,PrecipitationIn,Events,Conditions,WindDirDegrees,DateUTC
12:53 AM,54.0,45.0,72,29.98,10.0,Calm,Calm,-,N/A,,Clear,0,2013-10-02 05:53:00
1:53 AM,52.0,46.0,80,29.99,10.0,Calm,Calm,-,N/A,,Mostly Cloudy,0,2013-10-02 06:53:00
2:53 AM,55.9,48.9,77,29.99,10.0,Calm,Calm,-,N/A,,Mostly Cloudy,0,2013-10-02 07:53:00
3:53 AM,55.0,48.0,77,29.99,10.0,Calm,Calm,-,N/A,,Mostly Cloudy,0,2013-10-02 08:53:00
4:53 AM,55.0,48.9,80,30.00,10.0,Calm,Calm,-,N/A,,Overcast,0,2013-10-02 09:53:00
5:53 AM,55.0,46.9,74,30.01,10.0,North,4.6,-,N/A,,Overcast,360,2013-10-02 10:53:00
6:53 AM,57.0,46.9,69,30.02,10.0,Calm,Calm,-,N/A,,Overcast,0,2013-10-02 11:53:00
7:53 AM,57.9,45.0,62,30.02,10.0,SE,3.5,-,N/A,,Mostly Cloudy,130,2013-10-02 12:53:00
8:53 AM,61.0,46.0,58,30.03,10.0,Calm,Calm,-,N/A,,Mostly Cloudy,0,2013-10-02 13:53:00
9:53 AM,68.0,39.9,36,30.03,10.0,ESE,8.1,-,N/A,,Mostly Cloudy,120,2013-10-02 14:53:00
10:53 AM,73.0,42.1,33,30.01,10.0,SE,13.8,18.4,N/A,,Mostly Cloudy,130,2013-10-02 15:53:00
11:53 AM,77.0,46.0,33,29.99,10.0,ESE,11.5,20.7,N/A,,Mostly Cloudy,120,2013-10-02 16:53:00
1:53 PM,82.0,60.1,47,29.93,10.0,South,11.5,20.7,N/A,,Partly Cloudy,170,2013-10-02 18:53:00
2:53 PM,82.9,62.1,49,29.90,10.0,SSE,13.8,19.6,N/A,,Mostly Cloudy,160,2013-10-02 19:53:00
3:53 PM,82.9,61.0,47,29.88,10.0,SSE,12.7,19.6,N/A,,Partly Cloudy,160,2013-10-02 20:53:00
4:53 PM,82.9,60.1,46,29.86,10.0,South,12.7,20.7,N/A,,Clear,170,2013-10-02 21:53:00
5:53 PM,81.0,60.1,49,29.85,10.0,SSE,11.5,-,N/A,,Clear,160,2013-10-02 22:53:00
6:53 PM,75.9,60.1,58,29.85,10.0,South,6.9,-,N/A,,Clear,170,2013-10-02 23:53:00
7:53 PM,72.0,61.0,68,29.86,9.0,SSE,5.8,-,N/A,,Clear,160,2013-10-03 00:53:00
8:53 PM,71.1,62.1,73,29.85,10.0,SSE,6.9,-,N/A,,Scattered Clouds,160,2013-10-03 01:53:00
9:53 PM,72.0,63.0,73,29.86,10.0,South,8.1,-,N/A,,Partly Cloudy,170,2013-10-03 02:53:00
10:53 PM,71.1,64.0,78,29.85,10.0,South,9.2,-,N/A,,Clear,170,2013-10-03 03:53:00
11:53 PM,69.1,64.0,84,29.85,10.0,SSE,6.9,-,N/A,,Clear,160,2013-10-03 04:53:00